Time;durP1;ratioP1;P1;durP2;ratioP2;P2;SDS_P1;SDS_P2;PMS_P1;PMS_P2;Temp;Humidity;BMP_temperature;BMP_pressure;BME280_temperature;BME280_humidity;BME280_pressure;Samples;Min_cycle;Max_cycle;Signal;HPM_P1;HPM_P2
2023/04/06 00:01:24;;;;;;;19.90;14.75;;;;;;;0.83;100.00;-18049.75;4955516;28;20471;-79
2023/04/06 00:03:49;;;;;;;22.17;15.32;;;;;;;0.85;100.00;-18050.31;4954539;28;21107;-80
2023/04/06 00:06:15;;;;;;;21.95;15.15;;;;;;;0.82;100.00;-18049.47;4955298;28;20039;-80
2023/04/06 00:08:41;;;;;;;22.50;14.07;;;;;;;0.84;100.00;-18050.16;4951810;28;20046;-80
2023/04/06 00:11:06;;;;;;;18.50;14.20;;;;;;;0.82;100.00;-18049.47;4962429;28;20134;-79
2023/04/06 00:13:31;;;;;;;20.80;13.65;;;;;;;0.79;100.00;-18048.66;4954991;28;20495;-79
2023/04/06 00:15:57;;;;;;;21.38;14.45;;;;;;;0.67;100.00;-18045.59;4958036;28;20070;-79
2023/04/06 00:18:23;;;;;;;23.88;15.43;;;;;;;0.72;100.00;-18046.84;4955581;28;20097;-79
2023/04/06 00:20:48;;;;;;;21.20;15.25;;;;;;;0.73;100.00;-18046.97;4950898;28;20147;-79
2023/04/06 00:23:13;;;;;;;20.33;14.63;;;;;;;0.67;100.00;-18045.59;4953676;28;20043;-80
2023/04/06 00:25:39;;;;;;;21.40;15.55;;;;;;;0.65;100.00;-18045.03;4956486;28;20047;-79
2023/04/06 00:28:04;;;;;;;22.17;14.77;;;;;;;0.54;100.00;-18042.00;4953761;28;20109;-80
2023/04/06 00:30:30;;;;;;;24.92;15.77;;;;;;;0.52;100.00;-18041.44;4952352;28;20097;-80
2023/04/06 00:32:55;;;;;;;18.08;13.80;;;;;;;0.55;100.00;-18042.28;4957827;28;20777;-79
2023/04/06 00:35:21;;;;;;;21.35;14.20;;;;;;;0.51;100.00;-18041.16;4950486;28;20054;-79
2023/04/06 00:37:48;;;;;;;19.77;13.65;;;;;;;0.49;100.00;-18040.47;4952137;28;20122;-79
2023/04/06 00:40:13;;;;;;;20.30;14.75;;;;;;;0.54;100.00;-18042.00;4958143;28;20133;-80
2023/04/06 00:42:39;;;;;;;23.00;14.55;;;;;;;0.60;100.00;-18043.66;4951770;28;20050;-80
2023/04/06 00:45:04;;;;;;;21.75;14.98;;;;;;;0.56;100.00;-18042.41;4950257;28;20388;-79
2023/04/06 00:47:30;;;;;;;23.33;14.70;;;;;;;0.52;100.00;-18041.44;4954564;28;20046;-80
2023/04/06 00:49:56;;;;;;;20.00;14.73;;;;;;;0.43;100.00;-18039.09;4956894;28;20480;-79
2023/04/06 00:52:22;;;;;;;22.25;15.50;;;;;;;0.40;100.00;-18038.13;4945437;28;20035;-78
2023/04/06 00:54:48;;;;;;;20.65;15.30;;;;;;;0.32;100.00;-18036.03;4951516;28;20062;-79
2023/04/06 00:57:14;;;;;;;23.17;15.85;;;;;;;0.33;100.00;-18036.19;4953828;28;20053;-79
2023/04/06 00:59:40;;;;;;;24.85;16.50;;;;;;;0.28;100.00;-18034.94;4950952;28;20467;-78
2023/04/06 01:02:06;;;;;;;22.73;16.10;;;;;;;0.28;100.00;-18034.78;4949440;28;20436;-78
2023/04/06 01:04:32;;;;;;;21.05;16.05;;;;;;;0.16;100.00;-18031.75;4956866;28;20042;-78
2023/04/06 01:06:57;;;;;;;23.98;16.17;;;;;;;0.22;100.00;-18033.41;4955692;28;20034;-79
2023/04/06 01:09:23;;;;;;;24.48;16.02;;;;;;;0.26;100.00;-18034.22;4949873;28;20047;-79
2023/04/06 01:11:48;;;;;;;24.75;16.75;;;;;;;0.25;100.00;-18034.09;4955592;28;20113;-79
2023/04/06 01:14:14;;;;;;;21.30;15.60;;;;;;;0.21;100.00;-18033.00;4955208;28;20107;-79
2023/04/06 01:16:39;;;;;;;23.15;16.48;;;;;;;0.19;100.00;-18032.56;4955693;28;20043;-79
2023/04/06 01:19:12;;;;;;;21.50;16.10;;;;;;;0.14;100.00;-18031.06;4952244;28;20066;-78
2023/04/06 01:21:38;;;;;;;23.45;16.75;;;;;;;0.13;100.00;-18030.78;4948619;28;20047;-78
2023/04/06 01:24:04;;;;;;;23.33;16.30;;;;;;;0.10;100.00;-18029.94;4952956;28;20047;-79
2023/04/06 01:26:30;;;;;;;23.02;15.55;;;;;;;0.08;100.00;-18029.53;4953319;28;20513;-79
2023/04/06 01:28:56;;;;;;;22.67;15.40;;;;;;;0.07;100.00;-18029.13;4953950;28;20047;-79
2023/04/06 01:31:21;;;;;;;21.67;15.82;;;;;;;0.09;100.00;-18029.66;4960685;28;20039;-79
2023/04/06 01:33:47;;;;;;;22.42;15.45;;;;;;;0.07;100.00;-18029.25;4951535;28;20047;-79
2023/04/06 01:36:12;;;;;;;22.42;15.00;;;;;;;0.10;100.00;-18030.09;4956809;28;20170;-79
2023/04/06 01:38:38;;;;;;;19.70;15.57;;;;;;;0.12;100.00;-18030.50;4949563;28;20517;-79
2023/04/06 01:41:03;;;;;;;22.48;16.23;;;;;;;0.06;100.00;-18028.97;4950427;28;20054;-79
2023/04/06 01:43:29;;;;;;;22.15;16.15;;;;;;;-0.01;100.00;-18027.16;4952831;28;20278;-79
2023/04/06 01:45:55;;;;;;;24.95;16.30;;;;;;;-0.03;100.00;-18026.47;4963971;28;20055;-79
2023/04/06 01:48:20;;;;;;;24.23;17.10;;;;;;;-0.11;100.00;-18024.25;4951463;28;20047;-79
2023/04/06 01:50:46;;;;;;;22.75;16.80;;;;;;;-0.12;100.00;-18023.97;4949016;28;20392;-79
2023/04/06 01:53:11;;;;;;;23.17;16.10;;;;;;;-0.15;100.00;-18023.28;4954241;28;20050;-78
2023/04/06 01:55:37;;;;;;;23.77;16.58;;;;;;;-0.16;100.00;-18023.00;4949890;28;20047;-79
2023/04/06 01:58:02;;;;;;;23.17;16.00;;;;;;;-0.11;100.00;-18024.41;4955188;28;20162;-79
2023/04/06 02:00:28;;;;;;;22.90;16.80;;;;;;;-0.10;100.00;-18024.53;4949924;28;20198;-79
2023/04/06 02:02:53;;;;;;;22.58;16.80;;;;;;;-0.13;100.00;-18023.72;4951532;28;20047;-79
2023/04/06 02:05:20;;;;;;;23.33;16.65;;;;;;;-0.13;100.00;-18023.84;4957793;28;20054;-79
2023/04/06 02:07:45;;;;;;;26.23;18.05;;;;;;;-0.16;100.00;-18023.00;4954310;28;20036;-79
2023/04/06 02:10:13;;;;;;;25.02;16.23;;;;;;;-0.11;100.00;-18024.25;4951766;28;20054;-79
2023/04/06 02:12:38;;;;;;;23.20;18.08;;;;;;;-0.20;100.00;-18021.75;4951912;28;20042;-79
2023/04/06 02:15:04;;;;;;;24.60;17.58;;;;;;;-0.28;100.00;-18019.81;4953134;28;20051;-78
2023/04/06 02:17:30;;;;;;;24.65;17.38;;;;;;;-0.25;100.00;-18020.66;4950140;28;20078;-79
2023/04/06 02:19:55;;;;;;;26.98;16.88;;;;;;;-0.30;100.00;-18019.28;4949317;28;20050;-79
2023/04/06 02:22:20;;;;;;;24.20;16.60;;;;;;;-0.20;100.00;-18021.75;4958383;28;20042;-79
2023/04/06 02:24:46;;;;;;;25.95;16.40;;;;;;;-0.27;100.00;-18019.97;4956269;28;20151;-80
2023/04/06 02:27:12;;;;;;;25.25;17.25;;;;;;;-0.27;100.00;-18019.97;4951506;28;20372;-80
2023/04/06 02:29:37;;;;;;;25.60;17.95;;;;;;;-0.30;100.00;-18019.28;4948866;28;20054;-80
2023/04/06 02:32:03;;;;;;;23.38;17.33;;;;;;;-0.36;100.00;-18017.59;4949521;28;20046;-80
2023/04/06 02:34:29;;;;;;;24.00;16.80;;;;;;;-0.37;100.00;-18017.34;4950762;28;20077;-80
2023/04/06 02:36:55;;;;;;;26.80;17.98;;;;;;;-0.43;100.00;-18015.66;4957153;28;20106;-81
2023/04/06 02:39:20;;;;;;;23.27;16.98;;;;;;;-0.45;100.00;-18015.13;4957696;28;20043;-81
2023/04/06 02:41:45;;;;;;;24.77;17.80;;;;;;;-0.45;100.00;-18015.13;4951846;28;20050;-80
2023/04/06 02:44:11;;;;;;;26.95;18.17;;;;;;;-0.48;100.00;-18014.28;4955843;28;20046;-81
2023/04/06 02:46:36;;;;;;;25.63;17.60;;;;;;;-0.53;100.00;-18013.03;4954301;28;20035;-81
2023/04/06 02:49:02;;;;;;;26.35;18.17;;;;;;;-0.48;100.00;-18014.28;4962896;28;20610;-81
2023/04/06 02:51:27;;;;;;;25.60;18.00;;;;;;;-0.51;100.00;-18013.44;4968820;28;20134;-81
2023/04/06 02:53:53;;;;;;;25.77;16.88;;;;;;;-0.61;100.00;-18010.81;4967404;28;20055;-81
2023/04/06 02:56:20;;;;;;;24.80;17.42;;;;;;;-0.62;100.00;-18010.53;4961177;28;20034;-81
2023/04/06 02:58:46;;;;;;;24.10;17.75;;;;;;;-0.72;100.00;-18007.75;4953477;28;20044;-81
2023/04/06 03:01:11;;;;;;;26.17;17.67;;;;;;;-0.73;100.00;-18007.63;4956876;28;20058;-80
2023/04/06 03:03:37;;;;;;;27.45;18.27;;;;;;;-0.62;100.00;-18010.41;4962419;28;20039;-80
2023/04/06 03:06:03;;;;;;;26.42;18.48;;;;;;;-0.63;100.00;-18010.13;4952793;28;20070;-81
2023/04/06 03:08:28;;;;;;;25.63;17.30;;;;;;;-0.65;100.00;-18009.56;4962288;28;20059;-81
2023/04/06 03:10:54;;;;;;;26.08;18.08;;;;;;;-0.74;100.00;-18007.34;4955823;28;20407;-80
2023/04/06 03:13:20;;;;;;;22.50;16.70;;;;;;;-0.64;100.00;-18010.00;4957517;28;20495;-81
2023/04/06 03:15:46;;;;;;;24.63;18.48;;;;;;;-0.62;100.00;-18010.41;4961858;28;20050;-81
2023/04/06 03:18:11;;;;;;;23.88;17.25;;;;;;;-0.66;100.00;-18009.28;4960389;28;20043;-81
2023/04/06 03:20:37;;;;;;;25.92;17.67;;;;;;;-0.67;100.00;-18009.16;4962156;28;20259;-80
2023/04/06 03:23:02;;;;;;;26.73;18.25;;;;;;;-0.74;100.00;-18007.34;4967624;28;20384;-81
2023/04/06 03:25:29;;;;;;;26.48;18.05;;;;;;;-0.75;100.00;-18007.06;4956384;28;20399;-81
2023/04/06 03:27:55;;;;;;;27.55;18.20;;;;;;;-0.77;100.00;-18006.53;4960856;28;20051;-81
2023/04/06 03:30:20;;;;;;;26.75;18.15;;;;;;;-0.80;100.00;-18005.69;4956103;28;20051;-81
2023/04/06 03:32:46;;;;;;;26.08;18.17;;;;;;;-0.81;100.00;-18005.28;4955751;28;20047;-81
2023/04/06 03:35:11;;;;;;;26.17;18.02;;;;;;;-0.86;100.00;-18004.03;4953706;28;20043;-80
2023/04/06 03:37:36;;;;;;;22.13;16.45;;;;;;;-0.82;100.00;-18005.00;4969144;28;20042;-80
2023/04/06 03:40:03;;;;;;;25.55;18.25;;;;;;;-0.77;100.00;-18006.53;4960035;28;20039;-80
2023/04/06 03:42:28;;;;;;;26.40;17.17;;;;;;;-0.79;100.00;-18005.97;4955927;28;20035;-80
2023/04/06 03:44:54;;;;;;;24.42;17.30;;;;;;;-0.79;100.00;-18005.81;4958985;28;20043;-80
2023/04/06 03:47:19;;;;;;;25.33;17.70;;;;;;;-0.85;100.00;-18004.31;4963654;28;20085;-80
2023/04/06 03:49:45;;;;;;;26.45;18.40;;;;;;;-0.89;100.00;-18003.19;4961826;28;20055;-81
2023/04/06 03:52:11;;;;;;;26.38;18.48;;;;;;;-0.83;100.00;-18004.72;4963389;28;20039;-81
2023/04/06 03:54:36;;;;;;;24.30;17.10;;;;;;;-0.80;100.00;-18005.69;4962806;28;20039;-81
2023/04/06 03:57:02;;;;;;;26.55;17.75;;;;;;;-0.86;100.00;-18004.03;4966329;28;20226;-80
2023/04/06 03:59:27;;;;;;;22.40;17.10;;;;;;;-0.91;100.00;-18002.63;4961205;28;20049;-81
2023/04/06 04:01:53;;;;;;;27.38;18.45;;;;;;;-0.83;100.00;-18004.72;4962637;28;20050;-81
2023/04/06 04:04:18;;;;;;;25.83;17.88;;;;;;;-0.83;100.00;-18004.84;4959978;28;20043;-81
2023/04/06 04:06:44;;;;;;;27.50;18.70;;;;;;;-0.88;100.00;-18003.34;4962354;28;20158;-81
2023/04/06 04:09:09;;;;;;;24.90;17.38;;;;;;;-0.91;100.00;-18002.63;4971125;28;20046;-81
2023/04/06 04:11:35;;;;;;;25.90;17.67;;;;;;;-0.96;100.00;-18001.25;4967739;28;20077;-81
2023/04/06 04:14:00;;;;;;;26.35;17.65;;;;;;;-0.93;100.00;-18002.22;4963604;28;20081;-81
2023/04/06 04:16:25;;;;;;;28.25;19.08;;;;;;;-0.97;100.00;-18001.13;4965740;28;20562;-81
2023/04/06 04:18:51;;;;;;;26.33;18.30;;;;;;;-0.96;100.00;-18001.38;4969448;28;20051;-81
2023/04/06 04:21:16;;;;;;;28.42;17.50;;;;;;;-0.99;100.00;-18000.41;4964681;28;20046;-81
2023/04/06 04:23:42;;;;;;;25.55;17.52;;;;;;;-0.97;100.00;-18001.13;4972221;28;20043;-81
2023/04/06 04:26:07;;;;;;;27.55;18.70;;;;;;;-1.03;100.00;-17999.31;4960077;28;20411;-81
2023/04/06 04:28:32;;;;;;;25.90;18.25;;;;;;;-1.01;100.00;-17999.88;4965360;28;20066;-81
2023/04/06 04:30:58;;;;;;;25.05;16.85;;;;;;;-1.00;100.00;-18000.16;4962468;28;20473;-81
2023/04/06 04:33:23;;;;;;;27.15;17.58;;;;;;;-1.06;100.00;-17998.63;4966351;28;20043;-81
2023/04/06 04:35:49;;;;;;;26.05;17.58;;;;;;;-1.07;100.00;-17998.34;4966132;28;20054;-81
2023/04/06 04:38:14;;;;;;;24.65;18.80;;;;;;;-1.08;100.00;-17997.94;4971437;28;20043;-81
2023/04/06 04:40:40;;;;;;;27.08;18.70;;;;;;;-1.18;100.00;-17995.44;4962840;28;20046;-81
2023/04/06 04:43:05;;;;;;;24.52;18.45;;;;;;;-1.23;100.00;-17993.91;4964026;28;20130;-80
2023/04/06 04:45:31;;;;;;;28.05;18.80;;;;;;;-1.27;100.00;-17992.78;4962734;28;20035;-81
2023/04/06 04:47:56;;;;;;;24.40;18.33;;;;;;;-1.15;100.00;-17996.25;4958118;28;20044;-81
2023/04/06 04:50:21;;;;;;;27.90;18.73;;;;;;;-1.09;100.00;-17997.66;4962633;28;20119;-81
2023/04/06 04:52:47;;;;;;;23.88;18.02;;;;;;;-1.14;100.00;-17996.53;4962906;28;20047;-81
2023/04/06 04:55:12;;;;;;;27.08;18.58;;;;;;;-1.17;100.00;-17995.72;4965010;28;20059;-80
2023/04/06 04:57:38;;;;;;;26.10;18.35;;;;;;;-1.23;100.00;-17993.91;4957527;28;20039;-80
2023/04/06 05:00:05;;;;;;;25.90;18.25;;;;;;;-1.16;100.00;-17995.97;4961164;28;20089;-80
2023/04/06 05:02:31;;;;;;;26.85;19.80;;;;;;;-1.15;100.00;-17996.25;4958810;28;20423;-80
2023/04/06 05:04:56;;;;;;;26.48;18.48;;;;;;;-1.28;100.00;-17992.66;4961310;28;22288;-80
2023/04/06 05:07:22;;;;;;;25.92;18.83;;;;;;;-1.26;100.00;-17993.22;4962350;28;20150;-80
2023/04/06 05:09:47;;;;;;;27.25;19.23;;;;;;;-1.26;100.00;-17993.06;4960416;28;21001;-80
2023/04/06 05:12:13;;;;;;;26.75;18.52;;;;;;;-1.24;100.00;-17993.75;4958253;28;20078;-80
2023/04/06 05:14:38;;;;;;;25.63;18.70;;;;;;;-1.24;100.00;-17993.75;4959790;28;20090;-81
2023/04/06 05:17:04;;;;;;;27.45;19.85;;;;;;;-1.24;100.00;-17993.75;4963785;28;20070;-81
2023/04/06 05:19:30;;;;;;;25.75;19.50;;;;;;;-1.26;100.00;-17993.22;4957153;28;20071;-81
2023/04/06 05:21:55;;;;;;;25.33;18.08;;;;;;;-1.16;100.00;-17995.97;4960201;28;20133;-81
2023/04/06 05:24:21;;;;;;;27.80;19.85;;;;;;;-1.07;100.00;-17998.34;4958102;28;20125;-80
2023/04/06 05:26:47;;;;;;;27.48;19.33;;;;;;;-1.16;100.00;-17995.97;4957495;28;20061;-80
2023/04/06 05:29:13;;;;;;;30.08;19.90;;;;;;;-1.11;100.00;-17997.09;4962845;28;20051;-80
2023/04/06 05:31:38;;;;;;;25.77;19.52;;;;;;;-1.09;100.00;-17997.78;4963152;28;20046;-80
2023/04/06 05:34:04;;;;;;;27.02;19.00;;;;;;;-1.02;100.00;-17999.59;4964053;28;20054;-80
2023/04/06 05:36:30;;;;;;;28.77;19.08;;;;;;;-0.89;100.00;-18003.19;4961511;28;20042;-81
2023/04/06 05:38:56;;;;;;;25.58;19.23;;;;;;;-0.71;100.00;-18008.19;4962250;28;20047;-80
2023/04/06 05:41:21;;;;;;;30.45;19.20;;;;;;;-0.69;100.00;-18008.59;4962537;28;20081;-81
2023/04/06 05:43:47;;;;;;;25.92;18.25;;;;;;;-0.57;100.00;-18011.78;4960510;28;20042;-80
2023/04/06 05:46:12;;;;;;;25.77;18.80;;;;;;;-0.62;100.00;-18010.41;4961596;28;20114;-80
2023/04/06 05:48:37;;;;;;;29.17;18.73;;;;;;;-0.56;100.00;-18012.06;4976442;28;20049;-80
2023/04/06 05:51:06;;;;;;;24.50;18.13;;;;;;;-0.58;100.00;-18011.66;4967652;28;20515;-81
2023/04/06 05:53:31;;;;;;;26.17;18.77;;;;;;;-0.50;100.00;-18013.72;4969060;28;20130;-80
2023/04/06 05:55:57;;;;;;;27.50;18.92;;;;;;;-0.44;100.00;-18015.41;4960091;28;20491;-80
2023/04/06 05:58:22;;;;;;;26.88;17.65;;;;;;;-0.34;100.00;-18018.16;4961823;28;20458;-80
2023/04/06 06:00:47;;;;;;;27.10;18.52;;;;;;;-0.21;100.00;-18021.50;4972974;28;20070;-80
2023/04/06 06:03:13;;;;;;;25.65;18.17;;;;;;;-0.20;100.00;-18021.75;4974264;28;20039;-80
2023/04/06 06:05:39;;;;;;;27.50;17.77;;;;;;;-0.07;100.00;-18025.38;4974357;28;20777;-80
2023/04/06 06:08:04;;;;;;;25.63;17.98;;;;;;;0.02;100.00;-18027.88;4974878;28;20054;-80
2023/04/06 06:10:30;;;;;;;25.25;18.35;;;;;;;-0.03;100.00;-18026.47;4973909;28;20041;-79
2023/04/06 06:12:55;;;;;;;27.13;18.20;;;;;;;0.00;100.00;-18027.31;4985046;28;20522;-79
2023/04/06 06:15:21;;;;;;;24.92;18.52;;;;;;;0.13;100.00;-18030.91;4970761;28;20050;-79
2023/04/06 06:17:46;;;;;;;28.08;17.88;;;;;;;0.26;100.00;-18034.38;4955171;28;20051;-79
2023/04/06 06:20:12;;;;;;;29.90;19.15;;;;;;;0.50;100.00;-18040.75;4961541;28;20090;-79
2023/04/06 06:22:37;;;;;;;25.60;18.35;;;;;;;0.79;100.00;-18048.66;4968740;28;20047;-80
2023/04/06 06:25:03;;;;;;;28.58;18.98;;;;;;;0.94;100.00;-18052.78;4969298;28;20563;-80
2023/04/06 06:27:28;;;;;;;25.23;17.40;;;;;;;1.09;100.00;-18056.81;4962558;28;20050;-80
2023/04/06 06:29:54;;;;;;;27.00;18.55;;;;;;;1.23;100.00;-18060.69;4977150;28;20038;-79
2023/04/06 06:32:20;;;;;;;24.27;16.85;;;;;;;1.47;100.00;-18067.19;4950838;28;20055;-79
2023/04/06 06:34:45;;;;;;;25.50;18.38;;;;;;;1.61;100.00;-18070.78;4964383;28;20093;-79
2023/04/06 06:37:10;;;;;;;26.73;17.35;;;;;;;1.75;100.00;-18074.81;4968719;28;20046;-79
2023/04/06 06:39:36;;;;;;;22.98;16.13;;;;;;;1.89;100.00;-18078.53;4966219;28;20046;-79
2023/04/06 06:42:01;;;;;;;23.70;17.10;;;;;;;2.09;100.00;-18083.94;4956409;28;20074;-79
2023/04/06 06:44:27;;;;;;;24.38;16.42;;;;;;;2.21;100.00;-18087.13;4949621;28;20083;-79
2023/04/06 06:46:53;;;;;;;26.08;17.42;;;;;;;2.31;100.00;-18089.75;4957055;28;20047;-80
2023/04/06 06:49:19;;;;;;;26.27;15.32;;;;;;;2.45;100.00;-18093.75;4948564;28;20117;-79
2023/04/06 06:51:46;;;;;;;23.08;16.48;;;;;;;2.62;100.00;-18098.19;4948192;28;20508;-80
2023/04/06 06:54:11;;;;;;;27.95;17.63;;;;;;;2.77;100.00;-18102.34;4931114;28;20056;-80
2023/04/06 06:56:37;;;;;;;26.13;17.63;;;;;;;2.90;100.00;-18105.94;4963490;28;20039;-79
2023/04/06 06:59:03;;;;;;;23.83;15.57;;;;;;;3.09;100.00;-18110.91;4946030;28;20138;-80
2023/04/06 07:01:29;;;;;;;25.38;14.07;;;;;;;3.19;100.00;-18113.53;4948460;28;20051;-79
2023/04/06 07:03:55;;;;;;;23.42;15.13;;;;;;;3.32;100.00;-18117.13;4945784;28;20058;-80
2023/04/06 07:06:20;;;;;;;23.48;15.70;;;;;;;3.46;100.00;-18120.84;4944692;28;20042;-79
2023/04/06 07:08:46;;;;;;;24.17;15.38;;;;;;;3.56;100.00;-18123.75;4945702;28;20067;-82
2023/04/06 07:11:11;;;;;;;24.90;14.30;;;;;;;3.67;100.00;-18126.53;4946403;28;20102;-79
2023/04/06 07:13:37;;;;;;;24.25;15.48;;;;;;;3.81;100.00;-18130.53;4945987;28;20434;-79
2023/04/06 07:16:02;;;;;;;23.65;15.98;;;;;;;3.97;100.00;-18134.66;4946555;28;20036;-80
2023/04/06 07:18:28;;;;;;;22.20;14.55;;;;;;;4.05;100.00;-18137.03;4944518;28;20047;-80
2023/04/06 07:20:53;;;;;;;23.63;16.30;;;;;;;4.22;100.00;-18141.44;4946795;28;20134;-80
2023/04/06 07:23:19;;;;;;;21.30;15.23;;;;;;;4.36;100.00;-18145.31;4952973;28;20035;-80
2023/04/06 07:25:45;;;;;;;20.52;14.88;;;;;;;4.43;100.00;-18147.25;4947793;28;20137;-80
2023/04/06 07:28:10;;;;;;;25.42;15.48;;;;;;;4.55;100.00;-18150.28;4954115;28;20034;-81
2023/04/06 07:30:37;;;;;;;25.40;16.27;;;;;;;4.73;100.00;-18155.38;4956398;28;20103;-81
2023/04/06 07:33:03;;;;;;;20.75;14.75;;;;;;;4.82;100.00;-18157.72;4958537;28;20042;-81
2023/04/06 07:35:29;;;;;;;19.60;13.25;;;;;;;4.90;100.00;-18159.94;4956435;28;20122;-81
2023/04/06 07:37:55;;;;;;;17.88;11.52;;;;;;;5.02;100.00;-18163.13;4957141;28;20090;-82
2023/04/06 07:40:21;;;;;;;20.05;14.45;;;;;;;5.07;100.00;-18164.50;4955710;28;20530;-82
2023/04/06 07:42:47;;;;;;;24.08;13.85;;;;;;;5.15;100.00;-18166.72;4954963;28;20035;-82
2023/04/06 07:45:12;;;;;;;21.38;13.25;;;;;;;5.26;100.00;-18169.47;4957880;28;20137;-82
2023/04/06 07:47:38;;;;;;;18.35;13.68;;;;;;;5.30;100.00;-18170.56;4955693;28;20118;-82
2023/04/06 07:50:04;;;;;;;18.90;12.77;;;;;;;5.31;100.00;-18171.00;4957322;28;20711;-82
2023/04/06 07:52:31;;;;;;;21.65;14.30;;;;;;;5.46;100.00;-18175.00;4957287;28;20145;-82
2023/04/06 07:54:58;;;;;;;22.10;13.80;;;;;;;5.53;100.00;-18176.91;4956569;28;20088;-83
2023/04/06 07:57:23;;;;;;;22.60;14.95;;;;;;;5.62;100.00;-18179.25;4957365;28;20086;-84
2023/04/06 07:59:49;;;;;;;24.38;15.55;;;;;;;5.73;100.00;-18182.16;4952619;28;20432;-82
2023/04/06 08:02:14;;;;;;;19.48;14.57;;;;;;;5.81;100.00;-18184.38;4956936;28;20418;-82
2023/04/06 08:04:40;;;;;;;22.80;14.82;;;;;;;5.93;100.00;-18187.69;4953899;28;20130;-83
2023/04/06 08:07:05;;;;;;;22.08;13.68;;;;;;;6.05;100.00;-18191.00;4957172;28;20070;-82
2023/04/06 08:09:31;;;;;;;20.52;15.05;;;;;;;6.19;100.00;-18194.59;4954811;28;20074;-83
2023/04/06 08:11:56;;;;;;;20.58;14.23;;;;;;;6.47;100.00;-18202.31;4969275;28;20043;-82
2023/04/06 08:14:22;;;;;;;22.02;15.02;;;;;;;6.63;100.00;-18206.44;4957155;28;20388;-82
2023/04/06 08:16:47;;;;;;;19.98;13.93;;;;;;;6.83;100.00;-18211.94;4957155;28;20051;-83
2023/04/06 08:19:12;;;;;;;21.95;15.05;;;;;;;6.87;100.00;-18213.06;4953032;28;20058;-82
2023/04/06 08:21:39;;;;;;;21.50;12.45;;;;;;;7.00;100.00;-18216.50;4969761;28;20055;-82
2023/04/06 08:24:06;;;;;;;20.05;14.55;;;;;;;7.15;100.00;-18220.50;4956538;28;20055;-82
2023/04/06 08:26:31;;;;;;;19.35;13.98;;;;;;;7.38;100.00;-18226.84;4959150;28;20046;-83
2023/04/06 08:28:57;;;;;;;19.60;14.45;;;;;;;7.54;100.00;-18230.97;4954780;28;20039;-82
2023/04/06 08:31:22;;;;;;;19.45;13.57;;;;;;;7.79;100.00;-18237.84;4959805;28;20040;-82
2023/04/06 08:33:47;;;;;;;21.02;13.02;;;;;;;8.01;100.00;-18243.78;4954333;28;20098;-82
2023/04/06 08:36:14;;;;;;;18.88;14.90;;;;;;;8.05;100.00;-18244.75;4957350;28;20039;-82
2023/04/06 08:38:42;;;;;;;19.55;12.63;;;;;;;8.11;100.00;-18246.38;4956041;28;20066;-82
2023/04/06 08:41:12;;;;;;;21.33;14.07;;;;;;;8.12;100.00;-18246.81;4958213;28;20050;-82
2023/04/06 08:43:43;;;;;;;20.67;15.27;;;;;;;8.23;100.00;-18249.69;4955582;28;20394;-82
2023/04/06 08:46:10;;;;;;;20.30;13.93;;;;;;;8.30;100.00;-18251.63;4959092;28;20126;-82
2023/04/06 08:48:36;;;;;;;20.88;13.55;;;;;;;8.28;100.00;-18251.06;4957245;28;20042;-82
2023/04/06 08:51:02;;;;;;;22.65;15.40;;;;;;;8.39;100.00;-18253.84;4952905;28;20066;-81
2023/04/06 08:53:27;;;;;;;23.02;14.63;;;;;;;8.33;100.00;-18252.44;4955100;28;20047;-82
2023/04/06 08:55:55;;;;;;;24.17;14.30;;;;;;;8.46;100.00;-18255.75;4958025;28;20032;-82
2023/04/06 08:58:22;;;;;;;21.58;13.90;;;;;;;8.55;100.00;-18258.38;4957768;28;20052;-82
2023/04/06 09:00:49;;;;;;;24.73;15.45;;;;;;;8.68;100.00;-18261.81;4960374;28;20402;-82
2023/04/06 09:03:15;;;;;;;24.25;14.57;;;;;;;8.88;100.00;-18267.19;4960131;28;20054;-82
2023/04/06 09:05:41;;;;;;;21.25;14.50;;;;;;;9.18;100.00;-18275.31;4958840;28;20134;-82
2023/04/06 09:08:07;;;;;;;22.23;14.73;;;;;;;9.07;96.56;-18272.28;4958028;28;20629;-82
2023/04/06 09:10:35;;;;;;;21.77;12.85;;;;;;;9.08;90.21;-18272.41;4974186;28;20050;-82
2023/04/06 09:13:08;;;;;;;22.30;15.60;;;;;;;9.16;92.55;-18274.75;4957722;28;20051;-82
2023/04/06 09:15:34;;;;;;;20.13;14.75;;;;;;;9.30;96.53;-18278.47;4958551;28;20055;-82
2023/04/06 09:18:00;;;;;;;25.67;14.57;;;;;;;9.44;90.75;-18282.31;4957324;28;20047;-82
2023/04/06 09:20:27;;;;;;;22.55;14.15;;;;;;;9.45;86.58;-18282.59;4959312;28;20578;-82
2023/04/06 09:22:53;;;;;;;21.30;15.40;;;;;;;9.61;87.60;-18286.84;4960242;28;20046;-82
2023/04/06 09:25:21;;;;;;;21.85;14.00;;;;;;;9.59;87.69;-18286.31;4959510;28;20035;-82
2023/04/06 09:27:47;;;;;;;22.83;15.30;;;;;;;9.64;89.31;-18287.69;4963900;28;20046;-82
2023/04/06 09:30:16;;;;;;;23.70;15.50;;;;;;;9.74;92.33;-18290.16;4961592;28;20058;-82
2023/04/06 09:32:50;;;;;;;23.50;16.10;;;;;;;9.95;91.46;-18295.94;4961197;28;20047;-82
2023/04/06 09:35:16;;;;;;;27.75;19.60;;;;;;;9.99;75.25;-18296.88;4969438;28;20134;-82
2023/04/06 09:37:43;;;;;;;26.27;18.38;;;;;;;10.01;78.66;-18297.56;4961357;28;20079;-82
2023/04/06 09:40:09;;;;;;;24.05;17.77;;;;;;;10.27;79.36;-18304.59;4958750;28;20050;-83
2023/04/06 09:42:35;;;;;;;23.58;16.30;;;;;;;10.38;77.80;-18307.47;4959593;28;20043;-82
2023/04/06 09:45:02;;;;;;;25.17;16.80;;;;;;;10.34;75.95;-18306.38;4959566;28;20046;-82
2023/04/06 09:47:28;;;;;;;21.80;16.90;;;;;;;10.41;74.12;-18308.16;4958611;28;20062;-83
2023/04/06 09:49:58;;;;;;;22.40;17.10;;;;;;;10.38;76.79;-18307.47;4956899;28;20118;-83
2023/04/06 09:52:27;;;;;;;23.80;16.38;;;;;;;10.45;71.22;-18309.25;4959372;28;20079;-83
2023/04/06 09:54:55;;;;;;;26.73;16.60;;;;;;;10.47;72.02;-18309.94;4958576;28;20085;-83
2023/04/06 09:57:21;;;;;;;27.13;16.15;;;;;;;10.43;67.92;-18308.84;4961697;28;20042;-83
2023/04/06 10:00:13;;;;;;;23.77;16.98;;;;;;;10.59;67.28;-18313.13;4959667;28;21211;-82
2023/04/06 10:03:12;;;;;;;22.92;14.73;;;;;;;10.69;67.20;-18315.84;4956944;28;20267;-83
2023/04/06 10:05:50;;;;;;;23.50;14.48;;;;;;;10.81;63.61;-18319.00;4965222;28;20070;-82
2023/04/06 10:08:16;;;;;;;22.55;13.63;;;;;;;10.98;59.35;-18323.69;4966150;28;20050;-82
2023/04/06 10:10:42;;;;;;;21.13;12.15;;;;;;;11.05;57.83;-18325.59;4949389;28;20050;-82
2023/04/06 10:13:11;;;;;;;31.63;15.48;;;;;;;11.16;60.17;-18328.50;4952305;28;20039;-82
2023/04/06 10:15:38;;;;;;;25.08;15.05;;;;;;;11.60;57.05;-18340.31;4956134;28;20050;-83
2023/04/06 10:18:04;;;;;;;23.52;14.70;;;;;;;11.63;61.79;-18341.00;4953426;28;20055;-83
2023/04/06 10:20:43;;;;;;;21.58;13.57;;;;;;;11.86;57.12;-18347.31;4955067;28;20095;-83
2023/04/06 10:23:15;;;;;;;20.38;15.20;;;;;;;11.88;55.90;-18347.84;4954575;28;21173;-83
2023/04/06 10:25:53;;;;;;;19.95;13.95;;;;;;;11.84;51.03;-18346.63;4954226;28;20043;-82
2023/04/06 10:28:19;;;;;;;20.60;13.73;;;;;;;11.75;52.92;-18344.28;4950454;28;20047;-83
2023/04/06 10:30:45;;;;;;;25.50;16.02;;;;;;;11.78;51.67;-18345.09;4971743;28;20059;-83
2023/04/06 10:33:19;;;;;;;23.92;13.30;;;;;;;11.72;52.57;-18343.47;4960078;28;20049;-83
2023/04/06 10:35:45;;;;;;;23.85;15.65;;;;;;;11.72;49.74;-18343.47;4959331;28;20051;-83
2023/04/06 10:38:14;;;;;;;23.27;14.82;;;;;;;11.65;50.27;-18341.69;4957614;28;20078;-82
2023/04/06 10:40:46;;;;;;;22.67;15.18;;;;;;;11.82;53.89;-18346.06;4960102;28;20079;-83
2023/04/06 10:43:22;;;;;;;24.52;14.93;;;;;;;11.74;52.11;-18344.16;4957554;28;20043;-83
2023/04/06 10:45:59;;;;;;;23.85;16.15;;;;;;;11.85;51.22;-18346.88;4955501;28;20043;-83
2023/04/06 10:48:25;;;;;;;20.83;15.07;;;;;;;11.93;55.53;-18349.22;4954420;28;20091;-82
2023/04/06 10:50:52;;;;;;;23.58;16.17;;;;;;;12.08;52.35;-18353.19;4953425;28;20043;-82
2023/04/06 10:53:25;;;;;;;21.52;14.82;;;;;;;12.13;52.00;-18354.44;4954212;28;20126;-83
2023/04/06 10:55:52;;;;;;;28.48;15.15;;;;;;;12.15;51.61;-18355.00;4954912;28;20035;-83
2023/04/06 10:58:18;;;;;;;23.58;15.32;;;;;;;12.13;51.52;-18354.44;4955150;28;20047;-82
2023/04/06 11:00:45;;;;;;;22.52;14.95;;;;;;;12.20;52.05;-18356.38;4955901;28;20054;-82
2023/04/06 11:03:11;;;;;;;25.30;15.77;;;;;;;12.36;52.35;-18360.75;4959170;28;20667;-83